Time;durP1;ratioP1;P1;durP2;ratioP2;P2;SDS_P1;SDS_P2;PMS_P1;PMS_P2;Temp;Humidity;BMP_temperature;BMP_pressure;BME280_temperature;BME280_humidity;BME280_pressure;Samples;Min_cycle;Max_cycle;Signal;HPM_P1;HPM_P2
2023/02/16 00:00:52;;;;;;;69.40;30.13;;;6.80;99.90;;;;;;5029724;28;25088;-74
2023/02/16 00:03:20;;;;;;;69.70;30.02;;;6.80;99.90;;;;;;5030285;28;25154;-73
2023/02/16 00:05:46;;;;;;;67.57;30.90;;;6.70;99.90;;;;;;5030220;28;25077;-73
2023/02/16 00:08:12;;;;;;;79.18;34.38;;;6.70;99.90;;;;;;5029673;28;25045;-72
2023/02/16 00:10:38;;;;;;;72.63;30.80;;;6.60;99.90;;;;;;5027336;28;25063;-75
2023/02/16 00:16:14;;;;;;;76.80;33.47;;;6.60;99.90;;;;;;5027260;28;25057;-74
2023/02/16 00:18:39;;;;;;;66.28;31.90;;;6.50;99.90;;;;;;4996229;28;25054;-73
2023/02/16 00:21:05;;;;;;;71.75;31.10;;;6.50;99.90;;;;;;5039292;28;25062;-73
2023/02/16 00:23:31;;;;;;;64.95;31.20;;;6.60;99.90;;;;;;5041284;28;25103;-72
2023/02/16 00:25:56;;;;;;;69.00;31.83;;;6.50;99.90;;;;;;5033959;28;25072;-72
2023/02/16 00:28:22;;;;;;;68.05;32.58;;;6.50;99.90;;;;;;5019249;28;25135;-72
2023/02/16 00:30:49;;;;;;;69.72;30.35;;;6.50;99.90;;;;;;5028484;28;25057;-72
2023/02/16 00:33:16;;;;;;;70.95;31.15;;;6.40;99.90;;;;;;5012867;28;25129;-73
2023/02/16 00:35:43;;;;;;;64.97;29.80;;;6.40;99.90;;;;;;5020566;28;25084;-73
2023/02/16 00:38:09;;;;;;;75.18;34.33;;;6.40;99.90;;;;;;5033004;28;25057;-73
2023/02/16 00:40:35;;;;;;;69.72;31.60;;;6.20;99.90;;;;;;5038292;28;25083;-72
2023/02/16 00:43:00;;;;;;;74.90;32.22;;;6.30;99.90;;;;;;5027590;28;25186;-72
2023/02/16 00:45:26;;;;;;;73.68;31.90;;;6.30;99.90;;;;;;5035911;28;25147;-73
2023/02/16 00:47:53;;;;;;;78.63;34.10;;;6.30;99.90;;;;;;5030389;28;25112;-72
2023/02/16 00:50:18;;;;;;;73.22;30.48;;;6.30;99.90;;;;;;5033129;28;25141;-73
2023/02/16 00:52:45;;;;;;;64.40;31.65;;;6.30;99.90;;;;;;5033193;28;25163;-73
2023/02/16 00:55:20;;;;;;;74.53;33.20;;;6.40;99.90;;;;;;5027650;28;25096;-72
2023/02/16 00:58:10;;;;;;;68.78;30.55;;;6.40;99.90;;;;;;5029643;28;25140;-73
2023/02/16 01:00:41;;;;;;;71.45;31.40;;;6.40;99.90;;;;;;5015320;28;25073;-73
2023/02/16 01:03:12;;;;;;;68.82;30.98;;;6.20;99.90;;;;;;5029134;28;25058;-73
2023/02/16 01:05:38;;;;;;;71.20;31.52;;;6.40;99.90;;;;;;5028701;28;25066;-72
2023/02/16 01:13:27;;;;;;;69.60;32.22;;;6.30;99.90;;;;;;5028240;28;25049;-71
2023/02/16 01:15:53;;;;;;;59.97;28.95;;;6.20;99.90;;;;;;5030135;28;25149;-71
2023/02/16 01:18:20;;;;;;;68.78;29.63;;;6.30;99.90;;;;;;5010182;28;25070;-72
2023/02/16 01:20:46;;;;;;;73.47;31.30;;;6.30;99.90;;;;;;5020843;28;25073;-72
2023/02/16 01:23:12;;;;;;;67.93;32.13;;;6.40;99.90;;;;;;5013613;28;25078;-73
2023/02/16 01:25:38;;;;;;;66.65;28.92;;;6.40;99.90;;;;;;5027951;28;25097;-73
2023/02/16 01:28:20;;;;;;;64.25;30.80;;;6.40;99.90;;;;;;5028839;28;25087;-72
2023/02/16 01:30:46;;;;;;;70.82;29.55;;;6.50;99.90;;;;;;5027478;28;25141;-73
2023/02/16 01:33:12;;;;;;;73.80;29.95;;;6.50;99.90;;;;;;5030064;28;25080;-75
2023/02/16 01:35:38;;;;;;;61.28;27.85;;;6.50;99.90;;;;;;5021133;28;25128;-72
2023/02/16 01:38:03;;;;;;;69.28;29.17;;;6.50;99.90;;;;;;5027120;28;25091;-72
2023/02/16 01:40:32;;;;;;;60.72;28.60;;;6.50;99.90;;;;;;5028616;28;25076;-72
2023/02/16 01:43:18;;;;;;;63.70;29.88;;;6.50;99.90;;;;;;5027507;28;25140;-71
2023/02/16 01:46:09;;;;;;;72.65;29.33;;;6.50;99.90;;;;;;5027210;28;25049;-73
2023/02/16 01:48:35;;;;;;;54.90;27.75;;;6.50;99.90;;;;;;5016794;28;25136;-72
2023/02/16 01:51:13;;;;;;;62.60;30.05;;;6.60;99.90;;;;;;5027702;28;25148;-72
2023/02/16 01:53:41;;;;;;;69.55;30.05;;;6.60;99.90;;;;;;5021275;28;25088;-72
2023/02/16 01:56:20;;;;;;;62.13;30.17;;;6.60;99.90;;;;;;5026637;28;25066;-74
2023/02/16 01:58:51;;;;;;;65.00;29.73;;;6.60;99.90;;;;;;5029585;28;25071;-73
2023/02/16 02:01:37;;;;;;;60.03;28.48;;;6.70;99.90;;;;;;5026443;28;25147;-73
2023/02/16 02:07:23;;;;;;;67.10;29.92;;;6.70;99.90;;;;;;4999783;28;25117;-74
2023/02/16 02:10:17;;;;;;;66.43;28.50;;;6.80;99.90;;;;;;5027099;28;25103;-72
2023/02/16 02:12:52;;;;;;;68.28;29.67;;;6.80;99.90;;;;;;5009280;28;25074;-74
2023/02/16 02:15:23;;;;;;;59.25;29.30;;;6.70;99.90;;;;;;5032348;28;25151;-73
2023/02/16 02:17:48;;;;;;;67.90;30.50;;;6.70;99.90;;;;;;5027429;28;25066;-72
2023/02/16 02:20:20;;;;;;;66.40;29.48;;;6.80;99.90;;;;;;5027478;28;25086;-73
2023/02/16 02:25:57;;;;;;;63.47;28.27;;;6.70;99.90;;;;;;5023820;28;25107;-72
2023/02/16 02:28:38;;;;;;;66.57;28.13;;;6.80;99.90;;;;;;5022134;28;25158;-74
2023/02/16 02:31:29;;;;;;;63.83;29.38;;;6.80;99.90;;;;;;5027512;28;25139;-75
2023/02/16 02:34:11;;;;;;;64.38;28.67;;;6.80;99.90;;;;;;5003394;28;25075;-73
2023/02/16 02:37:06;;;;;;;65.68;29.55;;;6.80;99.90;;;;;;5016010;28;25051;-73
2023/02/16 02:40:01;;;;;;;66.60;29.10;;;6.80;99.90;;;;;;5019380;28;25076;-73
2023/02/16 02:42:56;;;;;;;71.95;29.25;;;6.70;99.90;;;;;;5015746;28;25062;-72
2023/02/16 02:45:34;;;;;;;59.33;26.63;;;6.80;99.90;;;;;;5011270;28;25077;-73
2023/02/16 02:48:00;;;;;;;65.63;28.48;;;6.80;99.90;;;;;;5028671;28;25057;-73
2023/02/16 03:03:13;;;;;;;61.47;28.85;;;6.80;99.90;;;;;;5021380;28;25062;-74
2023/02/16 03:05:49;;;;;;;64.57;28.92;;;6.80;99.90;;;;;;5024743;28;25052;-73
2023/02/16 03:08:18;;;;;;;63.80;29.42;;;6.80;99.90;;;;;;5030235;28;25157;-72
2023/02/16 03:13:44;;;;;;;63.45;27.92;;;6.70;99.90;;;;;;5023856;28;25140;-74
2023/02/16 03:16:13;;;;;;;59.83;27.70;;;6.80;99.90;;;;;;5029699;28;25087;-72
2023/02/16 03:29:47;;;;;;;57.85;27.75;;;6.90;99.90;;;;;;5016886;28;25057;-74
2023/02/16 03:32:13;;;;;;;62.60;29.65;;;6.90;99.90;;;;;;5031404;28;25148;-73
2023/02/16 03:34:38;;;;;;;61.28;30.52;;;6.90;99.90;;;;;;5025990;28;25081;-72
2023/02/16 03:37:05;;;;;;;59.38;29.00;;;6.90;99.90;;;;;;5013030;28;25062;-72
2023/02/16 03:39:31;;;;;;;66.10;30.10;;;7.00;99.90;;;;;;5021132;28;25062;-72
2023/02/16 03:42:18;;;;;;;67.35;29.35;;;7.00;99.90;;;;;;5029795;28;25084;-72
2023/02/16 03:44:44;;;;;;;69.05;30.67;;;7.10;99.90;;;;;;5029065;28;25068;-71
2023/02/16 03:47:10;;;;;;;65.80;29.52;;;7.10;99.90;;;;;;5028261;28;25049;-74
2023/02/16 03:49:35;;;;;;;59.45;29.88;;;7.00;99.90;;;;;;5026293;28;25081;-73
2023/02/16 03:52:01;;;;;;;65.25;28.77;;;7.00;99.90;;;;;;5029546;28;25084;-73
2023/02/16 03:54:26;;;;;;;71.38;32.00;;;7.10;99.90;;;;;;5030054;28;25074;-73
2023/02/16 03:56:52;;;;;;;65.88;29.58;;;7.10;99.90;;;;;;5029967;28;25070;-75
2023/02/16 03:59:19;;;;;;;59.80;27.90;;;7.10;99.90;;;;;;5006827;28;25092;-74
2023/02/16 04:01:44;;;;;;;63.80;29.95;;;7.30;99.90;;;;;;5029076;28;25077;-73
2023/02/16 04:04:10;;;;;;;62.10;28.48;;;7.30;99.90;;;;;;5029762;28;25074;-72
2023/02/16 04:06:35;;;;;;;66.05;29.23;;;7.30;99.90;;;;;;5030280;28;25082;-74
2023/02/16 04:09:01;;;;;;;63.72;30.02;;;7.30;99.90;;;;;;5029611;28;25123;-75
2023/02/16 04:14:11;;;;;;;59.83;29.33;;;7.20;99.90;;;;;;5025133;28;25086;-73
2023/02/16 04:16:36;;;;;;;68.45;29.02;;;7.20;99.90;;;;;;5027633;28;25067;-73
2023/02/16 04:19:02;;;;;;;64.07;30.63;;;7.30;99.90;;;;;;5030392;28;25056;-73
2023/02/16 04:21:28;;;;;;;67.68;30.92;;;7.20;99.90;;;;;;5029644;28;25057;-73
2023/02/16 04:23:53;;;;;;;61.90;29.77;;;7.20;99.90;;;;;;5030378;28;25068;-73
2023/02/16 04:26:19;;;;;;;65.88;29.58;;;7.20;99.90;;;;;;5011062;28;25076;-73
2023/02/16 04:28:44;;;;;;;66.97;29.42;;;7.30;99.90;;;;;;5027690;28;25066;-73
2023/02/16 04:31:10;;;;;;;64.03;28.52;;;7.40;99.90;;;;;;5030129;28;25098;-74
2023/02/16 04:33:35;;;;;;;68.75;30.33;;;7.40;99.90;;;;;;5035293;28;25073;-72
2023/02/16 04:36:01;;;;;;;60.88;30.25;;;7.30;99.90;;;;;;5033705;28;25076;-72
2023/02/16 04:38:26;;;;;;;65.13;31.45;;;7.40;99.90;;;;;;5029550;28;25092;-74
2023/02/16 04:40:52;;;;;;;66.18;29.60;;;7.40;99.90;;;;;;5029525;28;25093;-73
2023/02/16 04:43:18;;;;;;;68.72;31.25;;;7.40;99.90;;;;;;5023698;28;25081;-74
2023/02/16 04:45:43;;;;;;;65.30;31.98;;;7.30;99.90;;;;;;5026780;28;25131;-74
2023/02/16 04:48:09;;;;;;;75.57;30.55;;;7.30;99.90;;;;;;5020868;28;25091;-73
2023/02/16 04:50:34;;;;;;;65.35;30.25;;;7.20;99.90;;;;;;5028611;28;25075;-72
2023/02/16 04:53:00;;;;;;;64.93;30.90;;;7.40;99.90;;;;;;5025309;28;25097;-72
2023/02/16 04:55:25;;;;;;;63.05;28.58;;;7.40;99.90;;;;;;5029811;28;25079;-72
2023/02/16 04:57:51;;;;;;;63.28;29.85;;;7.30;99.90;;;;;;5021721;28;25081;-74
2023/02/16 05:00:17;;;;;;;72.68;32.22;;;7.20;99.90;;;;;;5021801;28;25055;-74
2023/02/16 05:02:44;;;;;;;68.95;28.92;;;7.30;99.90;;;;;;5026452;28;25070;-73
2023/02/16 05:05:09;;;;;;;68.53;31.58;;;7.30;99.90;;;;;;5024445;28;25057;-75
2023/02/16 05:07:35;;;;;;;66.95;31.92;;;7.30;99.90;;;;;;5020761;28;25072;-74
2023/02/16 05:10:01;;;;;;;64.35;31.63;;;7.30;99.90;;;;;;5021285;28;25062;-75
2023/02/16 05:15:11;;;;;;;67.10;31.50;;;7.20;99.90;;;;;;5026583;28;25075;-73
2023/02/16 05:17:36;;;;;;;67.53;30.10;;;7.30;99.90;;;;;;5025614;28;25134;-71
2023/02/16 05:20:02;;;;;;;62.47;29.58;;;7.20;99.90;;;;;;5028773;28;25096;-73
2023/02/16 05:22:28;;;;;;;70.47;30.77;;;7.30;99.90;;;;;;5022549;28;25081;-71
2023/02/16 05:24:53;;;;;;;69.57;31.52;;;7.40;99.90;;;;;;5020700;28;25063;-74
2023/02/16 05:27:27;;;;;;;68.72;32.45;;;7.40;99.90;;;;;;5024711;28;25066;-74
2023/02/16 05:29:53;;;;;;;75.72;32.15;;;7.40;99.90;;;;;;5028834;28;25077;-74
2023/02/16 05:32:19;;;;;;;70.72;32.67;;;7.30;99.90;;;;;;5027578;28;25092;-74
2023/02/16 05:34:45;;;;;;;69.03;32.00;;;7.40;99.90;;;;;;5042274;28;25058;-72
2023/02/16 05:37:13;;;;;;;68.63;32.25;;;7.30;99.90;;;;;;5036181;28;25065;-72
2023/02/16 05:39:39;;;;;;;76.82;32.13;;;7.30;99.90;;;;;;5033451;28;25065;-73
2023/02/16 05:42:04;;;;;;;75.00;32.83;;;7.30;99.90;;;;;;5037682;28;25119;-73
2023/02/16 05:44:30;;;;;;;63.97;30.23;;;7.40;99.90;;;;;;5034936;28;25102;-72
2023/02/16 05:46:55;;;;;;;66.15;31.45;;;7.40;99.90;;;;;;5039467;28;25073;-74
2023/02/16 05:49:21;;;;;;;75.22;34.20;;;7.30;99.90;;;;;;5035688;28;25062;-73
2023/02/16 05:51:46;;;;;;;76.57;32.38;;;7.40;99.90;;;;;;5043455;28;25109;-73
2023/02/16 05:54:16;;;;;;;71.10;30.80;;;7.40;99.90;;;;;;5047257;28;25078;-74
2023/02/16 05:56:50;;;;;;;71.00;33.20;;;7.40;99.90;;;;;;5050304;28;25052;-74
2023/02/16 05:59:16;;;;;;;82.53;32.97;;;7.50;99.90;;;;;;5046609;28;25059;-72
2023/02/16 06:01:42;;;;;;;65.03;31.52;;;7.60;99.90;;;;;;5032365;28;25095;-73
2023/02/16 06:04:10;;;;;;;62.53;29.88;;;7.50;99.90;;;;;;5047420;28;25061;-74
2023/02/16 06:06:37;;;;;;;72.78;33.67;;;7.60;99.90;;;;;;5032484;28;25085;-73
2023/02/16 06:09:05;;;;;;;71.70;32.78;;;7.50;99.90;;;;;;5031175;28;25078;-73
2023/02/16 06:11:36;;;;;;;66.05;30.92;;;7.40;99.90;;;;;;5041943;28;25086;-74
2023/02/16 06:14:04;;;;;;;77.63;32.25;;;7.50;99.90;;;;;;5037802;28;25049;-74
2023/02/16 06:16:31;;;;;;;67.03;33.00;;;7.50;99.90;;;;;;5045036;28;25097;-74
2023/02/16 06:18:57;;;;;;;73.68;33.55;;;7.60;99.90;;;;;;5040686;28;25063;-74
2023/02/16 06:21:23;;;;;;;72.28;32.15;;;7.60;99.90;;;;;;5038815;28;25058;-75
2023/02/16 06:23:49;;;;;;;69.60;32.50;;;7.60;99.90;;;;;;5041563;28;25061;-74
2023/02/16 06:26:15;;;;;;;69.22;32.47;;;7.60;99.90;;;;;;5034403;28;25169;-75
2023/02/16 06:28:40;;;;;;;69.97;33.80;;;7.70;99.90;;;;;;5028251;28;25076;-74
2023/02/16 06:31:06;;;;;;;71.35;33.60;;;7.60;99.90;;;;;;5006637;28;25063;-73
2023/02/16 06:33:32;;;;;;;70.93;31.85;;;7.50;99.90;;;;;;5026123;28;25141;-73
2023/02/16 06:35:57;;;;;;;65.00;31.02;;;7.50;99.90;;;;;;5032701;28;25065;-73
2023/02/16 06:38:23;;;;;;;70.45;30.80;;;7.50;99.90;;;;;;5027822;28;25072;-75
2023/02/16 06:40:51;;;;;;;72.88;32.83;;;7.50;99.90;;;;;;5030002;28;25049;-72
2023/02/16 06:43:17;;;;;;;70.97;32.88;;;7.50;99.90;;;;;;5025155;28;25077;-73
2023/02/16 06:45:42;;;;;;;65.13;31.63;;;7.50;99.90;;;;;;5042997;28;25079;-73
2023/02/16 06:48:08;;;;;;;62.03;31.65;;;7.50;99.90;;;;;;5033957;28;25055;-74
2023/02/16 06:50:34;;;;;;;71.55;33.25;;;7.50;99.90;;;;;;5036349;28;25047;-72
2023/02/16 06:52:59;;;;;;;68.95;32.97;;;7.50;99.90;;;;;;5025962;28;25146;-73
2023/02/16 06:55:25;;;;;;;63.90;31.40;;;7.50;99.90;;;;;;5030089;28;25092;-74
2023/02/16 06:57:50;;;;;;;65.93;32.28;;;7.50;99.90;;;;;;5027362;28;25052;-73
2023/02/16 07:00:16;;;;;;;71.63;33.83;;;7.50;99.90;;;;;;5028932;28;25067;-74
2023/02/16 07:02:42;;;;;;;66.13;32.00;;;7.60;99.90;;;;;;5029621;28;25067;-74
2023/02/16 07:05:09;;;;;;;73.93;32.55;;;7.60;99.90;;;;;;5031990;28;25071;-75
2023/02/16 07:07:34;;;;;;;68.53;33.05;;;7.60;99.90;;;;;;5029078;28;25071;-73
2023/02/16 07:10:01;;;;;;;69.18;31.50;;;7.60;99.90;;;;;;5029175;28;25043;-73
2023/02/16 07:12:27;;;;;;;75.35;32.58;;;7.60;99.90;;;;;;5008215;28;25057;-74
2023/02/16 07:14:52;;;;;;;67.93;32.38;;;7.70;99.90;;;;;;5030652;28;25056;-74
2023/02/16 07:17:18;;;;;;;70.80;32.63;;;7.70;99.90;;;;;;5026329;28;25098;-74
2023/02/16 07:19:43;;;;;;;64.68;33.33;;;7.70;99.90;;;;;;5030857;28;25074;-74
2023/02/16 07:22:09;;;;;;;59.75;30.85;;;7.70;99.90;;;;;;5031068;28;25084;-74
2023/02/16 07:24:35;;;;;;;76.03;34.47;;;7.70;99.90;;;;;;5029580;28;25058;-75
2023/02/16 07:27:01;;;;;;;73.50;31.92;;;7.70;99.90;;;;;;5027352;28;25076;-73
2023/02/16 07:29:26;;;;;;;66.40;32.13;;;7.70;99.90;;;;;;5029374;28;25059;-74
2023/02/16 07:31:52;;;;;;;70.20;33.03;;;7.70;99.90;;;;;;5027662;28;25173;-73
2023/02/16 07:34:18;;;;;;;65.43;32.75;;;7.70;99.90;;;;;;5039191;28;25073;-73
2023/02/16 07:36:44;;;;;;;63.42;30.67;;;7.80;99.90;;;;;;5017899;28;25113;-74
2023/02/16 07:39:10;;;;;;;68.85;30.65;;;7.80;99.90;;;;;;5028549;28;25075;-73
2023/02/16 07:41:35;;;;;;;64.40;30.70;;;7.80;99.90;;;;;;5028574;28;25063;-74
2023/02/16 07:44:01;;;;;;;66.97;31.15;;;7.90;99.90;;;;;;5034022;28;25108;-74
2023/02/16 07:46:26;;;;;;;70.57;32.83;;;7.90;99.90;;;;;;5011096;28;25112;-73
2023/02/16 07:48:52;;;;;;;68.35;32.10;;;7.90;99.90;;;;;;5024929;28;25070;-72
2023/02/16 07:51:22;;;;;;;63.58;29.73;;;7.80;99.90;;;;;;5035604;28;25140;-73
2023/02/16 07:53:48;;;;;;;68.30;31.95;;;7.90;99.90;;;;;;5034014;28;25070;-73
2023/02/16 07:56:22;;;;;;;68.00;32.60;;;8.00;99.90;;;;;;5012745;28;25074;-72
2023/02/16 07:58:47;;;;;;;72.63;30.73;;;8.00;99.90;;;;;;5031042;28;25152;-73
2023/02/16 08:01:13;;;;;;;63.40;29.95;;;8.10;99.90;;;;;;5034480;28;25098;-74
2023/02/16 08:03:39;;;;;;;76.93;32.83;;;8.00;99.90;;;;;;5027173;28;25065;-73
2023/02/16 08:06:06;;;;;;;68.10;32.58;;;8.00;99.90;;;;;;5030645;28;25083;-75
2023/02/16 08:08:32;;;;;;;64.50;31.83;;;7.90;99.90;;;;;;5027426;28;25080;-73
2023/02/16 08:10:58;;;;;;;68.35;30.75;;;7.90;99.90;;;;;;5037292;28;25098;-74
2023/02/16 08:13:24;;;;;;;64.57;31.30;;;8.00;99.90;;;;;;5040626;28;25077;-73
2023/02/16 08:15:49;;;;;;;63.22;30.50;;;8.00;99.90;;;;;;5039436;28;25060;-73
2023/02/16 08:18:15;;;;;;;59.22;28.55;;;8.10;99.90;;;;;;5019928;28;25059;-73
2023/02/16 08:20:41;;;;;;;63.90;31.17;;;8.20;99.90;;;;;;5030648;28;25068;-73
2023/02/16 08:23:06;;;;;;;65.43;30.83;;;8.30;99.90;;;;;;5029363;28;25175;-74
2023/02/16 08:25:36;;;;;;;70.95;30.48;;;8.30;99.90;;;;;;5032052;28;25166;-72
2023/02/16 08:28:02;;;;;;;65.95;31.75;;;8.30;99.90;;;;;;5037345;28;25103;-73
2023/02/16 08:30:28;;;;;;;64.40;30.75;;;8.30;99.90;;;;;;5033175;28;25069;-74
2023/02/16 08:32:59;;;;;;;76.88;32.17;;;8.30;99.90;;;;;;5038142;28;25053;-74
2023/02/16 08:35:26;;;;;;;62.28;31.50;;;8.30;99.90;;;;;;5035125;28;25099;-74
2023/02/16 08:37:51;;;;;;;67.90;32.10;;;8.20;99.90;;;;;;5044550;28;25084;-72
2023/02/16 08:40:17;;;;;;;69.40;32.00;;;8.10;99.90;;;;;;5042048;28;25130;-76
2023/02/16 08:42:43;;;;;;;61.63;29.65;;;8.10;99.90;;;;;;5036745;28;25072;-75
2023/02/16 08:45:09;;;;;;;69.20;33.15;;;8.20;99.90;;;;;;5031464;28;25120;-75
2023/02/16 08:47:35;;;;;;;72.28;32.97;;;8.30;99.90;;;;;;5032427;28;25069;-73
2023/02/16 08:50:01;;;;;;;73.25;33.03;;;8.30;99.90;;;;;;5037449;28;25075;-73
2023/02/16 08:52:26;;;;;;;65.53;32.70;;;8.20;99.90;;;;;;5032803;28;25128;-73
2023/02/16 08:54:52;;;;;;;71.40;34.25;;;8.20;99.90;;;;;;5032861;28;25062;-75
2023/02/16 08:57:18;;;;;;;81.53;36.05;;;8.30;99.90;;;;;;5012739;28;25055;-74
2023/02/16 08:59:43;;;;;;;71.32;34.30;;;8.30;99.90;;;;;;5022131;28;25081;-74
2023/02/16 09:02:10;;;;;;;78.50;34.95;;;8.40;99.90;;;;;;5028946;28;25071;-76
2023/02/16 09:04:36;;;;;;;74.80;34.65;;;8.40;99.90;;;;;;5013658;28;25064;-75
2023/02/16 09:07:03;;;;;;;81.53;37.33;;;8.50;99.90;;;;;;5030309;28;25071;-74
2023/02/16 09:09:29;;;;;;;79.75;35.80;;;8.40;99.90;;;;;;5030027;28;25069;-75
2023/02/16 09:11:56;;;;;;;75.22;35.88;;;8.40;99.90;;;;;;5010865;28;25099;-75
2023/02/16 09:14:22;;;;;;;87.93;35.00;;;8.40;99.90;;;;;;5029746;28;25074;-74
2023/02/16 09:16:47;;;;;;;80.55;38.25;;;8.50;99.90;;;;;;5030204;28;25056;-74
2023/02/16 09:19:19;;;;;;;77.65;36.17;;;8.40;99.90;;;;;;5033853;28;25156;-74
2023/02/16 09:21:47;;;;;;;82.87;36.77;;;8.50;99.90;;;;;;5027982;28;25068;-75
2023/02/16 09:24:12;;;;;;;79.80;37.47;;;8.50;99.90;;;;;;5020837;28;25133;-73
2023/02/16 09:26:41;;;;;;;75.45;36.22;;;8.50;99.90;;;;;;5028011;28;25131;-71
2023/02/16 09:29:08;;;;;;;83.40;35.45;;;8.70;99.90;;;;;;5017927;28;25137;-73
2023/02/16 09:31:35;;;;;;;85.88;37.42;;;8.70;99.90;;;;;;5029138;28;25152;-75
2023/02/16 09:34:06;;;;;;;68.82;35.00;;;8.70;99.90;;;;;;5030753;28;25056;-74
2023/02/16 09:36:33;;;;;;;78.03;35.35;;;8.80;99.90;;;;;;5032468;28;25065;-75
2023/02/16 09:38:59;;;;;;;80.70;36.72;;;8.80;99.90;;;;;;5027754;28;25090;-74
2023/02/16 09:41:34;;;;;;;79.28;36.45;;;8.80;99.90;;;;;;5030257;28;25136;-73
2023/02/16 09:44:12;;;;;;;75.88;35.30;;;8.80;99.90;;;;;;5011146;28;25166;-73
2023/02/16 09:46:39;;;;;;;69.25;34.75;;;9.00;99.90;;;;;;5025152;28;25064;-74
2023/02/16 09:49:07;;;;;;;72.10;31.98;;;9.00;99.90;;;;;;5039228;28;25085;-74
2023/02/16 09:51:39;;;;;;;72.18;35.20;;;9.10;99.90;;;;;;5028464;28;25067;-74
2023/02/16 09:54:41;;;;;;;76.43;34.92;;;9.10;99.90;;;;;;5028160;28;25154;-73
2023/02/16 09:57:41;;;;;;;71.13;32.78;;;9.20;99.90;;;;;;5023678;28;25068;-74
2023/02/16 10:00:24;;;;;;;71.93;34.63;;;9.20;99.90;;;;;;5018304;28;25066;-74
2023/02/16 10:03:36;;;;;;;71.05;35.08;;;9.40;99.90;;;;;;5026463;28;25068;-73
2023/02/16 10:06:22;;;;;;;76.43;33.47;;;9.60;99.90;;;;;;5012750;28;25085;-75
2023/02/16 10:08:59;;;;;;;71.45;34.60;;;9.70;99.90;;;;;;5017181;28;25077;-75
2023/02/16 10:11:36;;;;;;;73.80;35.13;;;9.60;99.90;;;;;;5013060;28;25077;-73
2023/02/16 10:14:24;;;;;;;76.65;33.05;;;9.70;99.90;;;;;;5024555;28;25054;-73
2023/02/16 10:17:10;;;;;;;80.72;34.90;;;9.60;99.90;;;;;;5027263;28;25082;-74
2023/02/16 10:19:51;;;;;;;66.18;34.20;;;9.70;99.90;;;;;;5003377;28;25057;-74
2023/02/16 10:22:41;;;;;;;72.72;34.33;;;9.90;99.90;;;;;;5003514;28;25051;-75
2023/02/16 10:25:25;;;;;;;75.47;35.88;;;9.90;99.90;;;;;;5029793;28;25093;-74
2023/02/16 10:28:07;;;;;;;83.15;35.72;;;9.90;99.90;;;;;;5028091;28;25048;-75
2023/02/16 10:30:32;;;;;;;82.95;35.03;;;9.90;99.90;;;;;;5019209;28;25142;-73
2023/02/16 10:33:27;;;;;;;79.07;36.50;;;9.90;99.90;;;;;;5012330;28;25064;-71
2023/02/16 10:36:02;;;;;;;81.10;34.38;;;9.80;99.90;;;;;;5012003;28;25090;-73
2023/02/16 10:38:41;;;;;;;73.07;35.25;;;9.90;99.90;;;;;;5027875;28;25072;-74
2023/02/16 10:41:27;;;;;;;76.47;35.65;;;10.10;99.90;;;;;;5028874;28;25101;-75
2023/02/16 10:44:08;;;;;;;80.20;36.40;;;10.00;99.90;;;;;;5005941;28;25080;-73
2023/02/16 10:46:39;;;;;;;63.80;32.77;;;9.90;99.90;;;;;;5011618;28;25058;-74
2023/02/16 10:49:08;;;;;;;75.63;35.90;;;9.90;99.90;;;;;;5027804;28;25053;-76
2023/02/16 10:51:36;;;;;;;80.82;36.58;;;10.20;99.90;;;;;;5020399;28;25145;-76
2023/02/16 10:54:12;;;;;;;73.85;34.70;;;10.10;99.90;;;;;;5027895;28;25065;-73
2023/02/16 10:56:51;;;;;;;73.05;34.50;;;10.10;99.90;;;;;;5024266;28;25151;-75
2023/02/16 10:59:29;;;;;;;69.47;32.25;;;10.20;99.90;;;;;;5019537;28;25138;-74
2023/02/16 11:01:57;;;;;;;67.05;32.17;;;10.20;99.90;;;;;;5021649;28;25079;-72
2023/02/16 11:04:35;;;;;;;70.03;32.33;;;10.20;99.90;;;;;;5009720;28;25069;-73
2023/02/16 11:07:14;;;;;;;69.22;31.42;;;10.20;99.90;;;;;;5010658;28;25057;-75
2023/02/16 11:09:42;;;;;;;71.57;31.33;;;10.20;99.90;;;;;;5025161;28;25167;-73
2023/02/16 11:12:31;;;;;;;68.30;30.92;;;10.20;99.90;;;;;;5026628;28;25095;-73
2023/02/16 11:15:04;;;;;;;66.18;32.60;;;10.20;99.90;;;;;;5023811;28;25108;-74
2023/02/16 11:17:32;;;;;;;73.90;32.00;;;10.30;99.90;;;;;;5023948;28;25107;-74
2023/02/16 11:20:04;;;;;;;65.78;31.42;;;10.40;99.90;;;;;;5008834;28;25106;-71
2023/02/16 11:22:33;;;;;;;62.80;30.95;;;10.60;99.90;;;;;;5027992;28;25052;-74
2023/02/16 11:25:17;;;;;;;70.53;33.00;;;10.50;99.90;;;;;;5035271;28;25085;-73
2023/02/16 11:28:23;;;;;;;71.20;33.45;;;10.50;99.90;;;;;;5027982;28;25048;-73
2023/02/16 11:30:59;;;;;;;65.75;32.58;;;10.50;99.90;;;;;;5012695;28;25063;-73
2023/02/16 11:33:27;;;;;;;64.22;32.22;;;10.70;99.90;;;;;;5027898;28;25065;-73
2023/02/16 11:35:54;;;;;;;64.63;31.05;;;10.80;99.90;;;;;;5014755;28;25105;-73
2023/02/16 11:38:36;;;;;;;70.35;32.92;;;10.80;99.90;;;;;;5032443;28;25061;-72
2023/02/16 11:41:04;;;;;;;68.47;32.33;;;10.80;99.90;;;;;;5032382;28;25183;-73
2023/02/16 11:43:33;;;;;;;59.47;31.67;;;11.00;99.90;;;;;;5027830;28;25078;-72
2023/02/16 11:46:13;;;;;;;59.83;30.98;;;11.10;99.90;;;;;;5032996;28;25080;-73
2023/02/16 11:48:39;;;;;;;62.17;29.63;;;10.90;99.90;;;;;;5030728;28;25099;-75
2023/02/16 11:51:07;;;;;;;67.15;30.23;;;10.90;99.90;;;;;;5031723;28;25080;-73
2023/02/16 11:53:35;;;;;;;60.22;28.95;;;11.00;99.90;;;;;;5031552;28;25074;-72
2023/02/16 11:56:22;;;;;;;60.58;28.98;;;10.90;99.90;;;;;;5035095;28;25085;-74
2023/02/16 11:59:24;;;;;;;54.78;29.48;;;11.10;99.90;;;;;;5017558;28;25067;-74
2023/02/16 12:02:14;;;;;;;58.85;28.42;;;11.50;99.90;;;;;;4977578;28;25095;-72
2023/02/16 12:05:22;;;;;;;59.22;27.50;;;11.10;99.90;;;;;;5028771;28;25084;-74
2023/02/16 12:08:11;;;;;;;62.20;29.52;;;11.20;99.90;;;;;;5023285;28;25084;-73
2023/02/16 12:10:43;;;;;;;59.95;29.77;;;11.20;99.90;;;;;;5033448;28;25084;-75
2023/02/16 12:13:24;;;;;;;54.33;27.98;;;11.30;99.90;;;;;;5030745;28;25058;-73
2023/02/16 12:16:03;;;;;;;54.95;27.70;;;11.50;99.90;;;;;;5033406;28;25148;-73
2023/02/16 12:18:45;;;;;;;53.97;26.85;;;11.90;99.90;;;;;;5013370;28;25054;-74
2023/02/16 12:21:25;;;;;;;58.95;28.38;;;12.30;99.90;;;;;;5038031;28;25058;-74
2023/02/16 12:23:51;;;;;;;55.40;28.95;;;12.20;99.90;;;;;;5026048;28;25066;-72
2023/02/16 12:26:32;;;;;;;53.17;27.77;;;12.20;99.90;;;;;;5028164;28;25102;-73
2023/02/16 12:29:19;;;;;;;54.00;27.50;;;12.80;99.90;;;;;;5028011;28;25068;-74
2023/02/16 12:32:09;;;;;;;54.20;28.42;;;13.10;99.90;;;;;;5032843;28;25067;-74
2023/02/16 12:35:08;;;;;;;54.25;26.40;;;13.20;99.90;;;;;;5025413;28;25074;-74
2023/02/16 12:38:03;;;;;;;57.97;26.50;;;13.20;99.90;;;;;;5007287;28;25066;-73
2023/02/16 12:40:28;;;;;;;51.03;26.15;;;13.40;99.90;;;;;;5018632;28;25151;-72
2023/02/16 12:42:54;;;;;;;55.17;25.73;;;13.10;99.90;;;;;;5025083;28;25063;-72
2023/02/16 12:45:23;;;;;;;42.35;24.05;;;13.00;99.90;;;;;;5032583;28;25091;-73
2023/02/16 12:47:53;;;;;;;39.80;21.52;;;12.80;99.90;;;;;;5035220;28;25066;-72
2023/02/16 12:50:26;;;;;;;39.03;20.85;;;12.60;99.90;;;;;;5041442;28;25074;-72
2023/02/16 12:53:13;;;;;;;40.53;20.55;;;12.60;99.90;;;;;;5039731;28;25099;-72
2023/02/16 12:55:47;;;;;;;36.05;19.83;;;12.40;99.90;;;;;;5051496;28;25107;-74
2023/02/16 12:58:22;;;;;;;39.53;19.60;;;12.30;99.90;;;;;;5043522;28;25066;-72
2023/02/16 13:01:02;;;;;;;39.20;21.63;;;12.20;99.90;;;;;;5049023;28;25100;-74
2023/02/16 13:03:43;;;;;;;37.28;20.05;;;12.10;99.90;;;;;;5048576;28;25071;-73
2023/02/16 13:06:42;;;;;;;36.85;18.55;;;12.20;99.90;;;;;;5044267;28;25073;-72
2023/02/16 13:09:36;;;;;;;36.83;18.80;;;12.10;99.90;;;;;;5027006;28;25061;-72
2023/02/16 13:12:14;;;;;;;34.65;17.55;;;12.20;99.90;;;;;;5039446;28;25077;-72
2023/02/16 13:14:44;;;;;;;33.22;16.63;;;12.40;99.90;;;;;;5044778;28;25110;-73
2023/02/16 13:17:45;;;;;;;34.60;18.10;;;12.30;99.90;;;;;;5040814;28;25077;-73
2023/02/16 13:20:18;;;;;;;37.63;18.40;;;12.20;99.90;;;;;;5032870;28;25082;-72
2023/02/16 13:23:06;;;;;;;35.40;18.48;;;12.10;99.90;;;;;;5037289;28;25065;-74
2023/02/16 13:26:16;;;;;;;29.35;16.50;;;12.30;99.90;;;;;;5039254;28;25078;-74
2023/02/16 13:28:42;;;;;;;34.67;17.73;;;12.20;99.90;;;;;;5039132;28;25111;-74
2023/02/16 13:31:24;;;;;;;35.33;17.40;;;12.30;99.90;;;;;;5035499;28;25060;-74
2023/02/16 13:34:09;;;;;;;33.00;15.90;;;12.40;99.90;;;;;;5041896;28;25075;-77
2023/02/16 13:36:38;;;;;;;37.53;16.80;;;12.20;99.90;;;;;;5046221;28;25094;-76
2023/02/16 13:39:29;;;;;;;35.90;18.30;;;12.30;99.90;;;;;;5041473;28;25070;-75
2023/02/16 13:42:23;;;;;;;31.08;15.88;;;12.30;99.90;;;;;;5042802;28;25069;-74
2023/02/16 13:44:57;;;;;;;28.75;14.65;;;12.40;99.90;;;;;;5042067;28;25060;-74